sensor_id;sensor_type;location;lat;lon;timestamp;pressure;altitude;pressure_sealevel;temperature
60731;BMP280;46580;52.114;11.674;2022-08-20T00:00:58;100762.44;;;20.65
60731;BMP280;46580;52.114;11.674;2022-08-20T00:03:31;100770.56;;;20.70
60731;BMP280;46580;52.114;11.674;2022-08-20T00:06:04;100768.75;;;20.70
60731;BMP280;46580;52.114;11.674;2022-08-20T00:08:30;100779.06;;;20.72
60731;BMP280;46580;52.114;11.674;2022-08-20T00:10:58;100784.28;;;20.72
60731;BMP280;46580;52.114;11.674;2022-08-20T00:13:34;100790.34;;;20.72
60731;BMP280;46580;52.114;11.674;2022-08-20T00:16:06;100798.00;;;20.74
60731;BMP280;46580;52.114;11.674;2022-08-20T00:18:40;100803.59;;;20.71
60731;BMP280;46580;52.114;11.674;2022-08-20T00:21:08;100797.63;;;20.77
60731;BMP280;46580;52.114;11.674;2022-08-20T00:23:44;100784.84;;;20.82
60731;BMP280;46580;52.114;11.674;2022-08-20T00:26:11;100777.34;;;20.79
60731;BMP280;46580;52.114;11.674;2022-08-20T00:28:39;100775.44;;;20.73
60731;BMP280;46580;52.114;11.674;2022-08-20T00:31:10;100756.13;;;20.60
60731;BMP280;46580;52.114;11.674;2022-08-20T00:33:36;100752.78;;;20.51
60731;BMP280;46580;52.114;11.674;2022-08-20T00:36:04;100756.09;;;20.46
60731;BMP280;46580;52.114;11.674;2022-08-20T00:38:35;100752.41;;;20.40
60731;BMP280;46580;52.114;11.674;2022-08-20T00:41:02;100749.94;;;20.39
60731;BMP280;46580;52.114;11.674;2022-08-20T00:43:31;100747.50;;;20.37
60731;BMP280;46580;52.114;11.674;2022-08-20T00:46:04;100745.72;;;20.38
60731;BMP280;46580;52.114;11.674;2022-08-20T00:48:31;100743.47;;;20.35
60731;BMP280;46580;52.114;11.674;2022-08-20T00:51:32;100757.63;;;20.40
60731;BMP280;46580;52.114;11.674;2022-08-20T00:54:27;100762.16;;;20.46
60731;BMP280;46580;52.114;11.674;2022-08-20T00:57:00;100751.94;;;20.51
60731;BMP280;46580;52.114;11.674;2022-08-20T00:59:29;100759.34;;;20.48
60731;BMP280;46580;52.114;11.674;2022-08-20T01:01:57;100751.69;;;20.46
60731;BMP280;46580;52.114;11.674;2022-08-20T01:04:29;100745.63;;;20.46
60731;BMP280;46580;52.114;11.674;2022-08-20T01:07:04;100753.66;;;20.44
60731;BMP280;46580;52.114;11.674;2022-08-20T01:09:30;100762.84;;;20.40
60731;BMP280;46580;52.114;11.674;2022-08-20T01:11:56;100763.66;;;20.41
60731;BMP280;46580;52.114;11.674;2022-08-20T01:14:22;100777.00;;;20.46
60731;BMP280;46580;52.114;11.674;2022-08-20T01:17:08;100780.94;;;20.42
60731;BMP280;46580;52.114;11.674;2022-08-20T01:19:42;100777.72;;;20.40
60731;BMP280;46580;52.114;11.674;2022-08-20T01:22:09;100785.56;;;20.40
60731;BMP280;46580;52.114;11.674;2022-08-20T01:25:02;100782.47;;;20.36
60731;BMP280;46580;52.114;11.674;2022-08-20T01:27:29;100781.19;;;20.32
60731;BMP280;46580;52.114;11.674;2022-08-20T01:30:00;100781.31;;;20.39
60731;BMP280;46580;52.114;11.674;2022-08-20T01:32:30;100774.47;;;20.38
60731;BMP280;46580;52.114;11.674;2022-08-20T01:35:03;100774.47;;;20.38
60731;BMP280;46580;52.114;11.674;2022-08-20T01:37:32;100779.03;;;20.36
60731;BMP280;46580;52.114;11.674;2022-08-20T01:39:59;100780.19;;;20.33
60731;BMP280;46580;52.114;11.674;2022-08-20T01:42:36;100779.56;;;20.31
60731;BMP280;46580;52.114;11.674;2022-08-20T01:45:06;100765.03;;;20.29
60731;BMP280;46580;52.114;11.674;2022-08-20T01:47:34;100764.09;;;20.22
60731;BMP280;46580;52.114;11.674;2022-08-20T01:50:17;100767.59;;;20.15
60731;BMP280;46580;52.114;11.674;2022-08-20T01:52:55;100776.06;;;20.17
60731;BMP280;46580;52.114;11.674;2022-08-20T01:55:22;100767.78;;;20.13
60731;BMP280;46580;52.114;11.674;2022-08-20T01:57:50;100771.81;;;20.16
60731;BMP280;46580;52.114;11.674;2022-08-20T02:00:17;100773.19;;;20.12
60731;BMP280;46580;52.114;11.674;2022-08-20T02:02:43;100776.31;;;20.08
60731;BMP280;46580;52.114;11.674;2022-08-20T02:05:12;100780.41;;;20.02
60731;BMP280;46580;52.114;11.674;2022-08-20T02:07:38;100783.56;;;19.98
60731;BMP280;46580;52.114;11.674;2022-08-20T02:10:05;100775.56;;;19.99
60731;BMP280;46580;52.114;11.674;2022-08-20T02:12:31;100785.53;;;19.96
60731;BMP280;46580;52.114;11.674;2022-08-20T02:15:09;100783.63;;;19.90
60731;BMP280;46580;52.114;11.674;2022-08-20T02:17:38;100788.84;;;19.90
60731;BMP280;46580;52.114;11.674;2022-08-20T02:20:15;100785.78;;;19.87
60731;BMP280;46580;52.114;11.674;2022-08-20T02:22:56;100787.91;;;19.83
60731;BMP280;46580;52.114;11.674;2022-08-20T02:25:28;100785.47;;;19.82
60731;BMP280;46580;52.114;11.674;2022-08-20T02:27:58;100791.50;;;19.82
60731;BMP280;46580;52.114;11.674;2022-08-20T02:30:31;100790.38;;;19.77
60731;BMP280;46580;52.114;11.674;2022-08-20T02:33:06;100788.94;;;19.74
60731;BMP280;46580;52.114;11.674;2022-08-20T02:35:33;100794.97;;;19.75
60731;BMP280;46580;52.114;11.674;2022-08-20T02:37:59;100796.97;;;19.73
60731;BMP280;46580;52.114;11.674;2022-08-20T02:40:29;100803.00;;;19.74
60731;BMP280;46580;52.114;11.674;2022-08-20T02:42:54;100808.56;;;19.71
60731;BMP280;46580;52.114;11.674;2022-08-20T02:45:20;100807.22;;;19.74
60731;BMP280;46580;52.114;11.674;2022-08-20T02:47:48;100805.78;;;19.72
60731;BMP280;46580;52.114;11.674;2022-08-20T02:50:26;100804.59;;;19.74
60731;BMP280;46580;52.114;11.674;2022-08-20T02:52:51;100804.59;;;19.74
60731;BMP280;46580;52.114;11.674;2022-08-20T02:55:20;100810.47;;;19.76
60731;BMP280;46580;52.114;11.674;2022-08-20T02:57:46;100803.44;;;19.77
60731;BMP280;46580;52.114;11.674;2022-08-20T03:00:16;100805.91;;;19.78
60731;BMP280;46580;52.114;11.674;2022-08-20T03:02:43;100810.59;;;19.83
60731;BMP280;46580;52.114;11.674;2022-08-20T03:05:18;100816.88;;;19.96
60731;BMP280;46580;52.114;11.674;2022-08-20T03:07:49;100805.13;;;20.00
60731;BMP280;46580;52.114;11.674;2022-08-20T03:10:24;100815.22;;;20.03
60731;BMP280;46580;52.114;11.674;2022-08-20T03:12:52;100812.16;;;19.99
60731;BMP280;46580;52.114;11.674;2022-08-20T03:15:18;100813.94;;;19.99
60731;BMP280;46580;52.114;11.674;2022-08-20T03:17:45;100813.28;;;19.97
60731;BMP280;46580;52.114;11.674;2022-08-20T03:20:11;100817.19;;;20.01
60731;BMP280;46580;52.114;11.674;2022-08-20T03:22:42;100818.47;;;20.05
60731;BMP280;46580;52.114;11.674;2022-08-20T03:25:08;100809.00;;;20.04
60731;BMP280;46580;52.114;11.674;2022-08-20T03:27:37;100805.00;;;20.15
60731;BMP280;46580;52.114;11.674;2022-08-20T03:30:08;100797.78;;;20.17
60731;BMP280;46580;52.114;11.674;2022-08-20T03:32:34;100806.28;;;20.19
60731;BMP280;46580;52.114;11.674;2022-08-20T03:35:00;100804.31;;;20.21
60731;BMP280;46580;52.114;11.674;2022-08-20T03:37:36;100800.69;;;20.22
60731;BMP280;46580;52.114;11.674;2022-08-20T03:40:06;100804.31;;;20.21
60731;BMP280;46580;52.114;11.674;2022-08-20T03:42:35;100796.75;;;20.26
60731;BMP280;46580;52.114;11.674;2022-08-20T03:45:11;100808.03;;;20.27
60731;BMP280;46580;52.114;11.674;2022-08-20T03:47:41;100810.28;;;20.29
60731;BMP280;46580;52.114;11.674;2022-08-20T03:50:11;100808.84;;;20.27
60731;BMP280;46580;52.114;11.674;2022-08-20T03:52:38;100812.44;;;20.26
60731;BMP280;46580;52.114;11.674;2022-08-20T03:55:11;100815.22;;;20.25
60731;BMP280;46580;52.114;11.674;2022-08-20T03:57:51;100812.78;;;20.23
60731;BMP280;46580;52.114;11.674;2022-08-20T04:00:39;100810.16;;;20.23
60731;BMP280;46580;52.114;11.674;2022-08-20T04:03:05;100818.38;;;20.20
60731;BMP280;46580;52.114;11.674;2022-08-20T04:05:34;100818.38;;;20.20
60731;BMP280;46580;52.114;11.674;2022-08-20T04:08:06;100815.13;;;20.18
60731;BMP280;46580;52.114;11.674;2022-08-20T04:10:36;100810.59;;;20.12
60731;BMP280;46580;52.114;11.674;2022-08-20T04:13:05;100814.63;;;20.15
60731;BMP280;46580;52.114;11.674;2022-08-20T04:15:32;100814.63;;;20.15
60731;BMP280;46580;52.114;11.674;2022-08-20T04:17:59;100812.84;;;20.15
60731;BMP280;46580;52.114;11.674;2022-08-20T04:20:27;100818.44;;;20.12
60731;BMP280;46580;52.114;11.674;2022-08-20T04:22:54;100814.34;;;20.10
60731;BMP280;46580;52.114;11.674;2022-08-20T04:25:35;100816.16;;;20.10
60731;BMP280;46580;52.114;11.674;2022-08-20T04:28:03;100811.22;;;20.14
60731;BMP280;46580;52.114;11.674;2022-08-20T04:30:29;100807.16;;;20.12
60731;BMP280;46580;52.114;11.674;2022-08-20T04:32:57;100813.03;;;20.14
60731;BMP280;46580;52.114;11.674;2022-08-20T04:35:24;100810.59;;;20.12
60731;BMP280;46580;52.114;11.674;2022-08-20T04:37:58;100805.69;;;20.10
60731;BMP280;46580;52.114;11.674;2022-08-20T04:40:23;100811.56;;;20.11
60731;BMP280;46580;52.114;11.674;2022-08-20T04:43:10;100808.13;;;20.11
60731;BMP280;46580;52.114;11.674;2022-08-20T04:45:39;100809.59;;;20.13
60731;BMP280;46580;52.114;11.674;2022-08-20T04:48:14;100809.22;;;20.16
60731;BMP280;46580;52.114;11.674;2022-08-20T04:50:44;100809.84;;;20.26
60731;BMP280;46580;52.114;11.674;2022-08-20T04:53:14;100809.84;;;20.26
60731;BMP280;46580;52.114;11.674;2022-08-20T04:55:45;100799.66;;;20.31
60731;BMP280;46580;52.114;11.674;2022-08-20T04:58:17;100801.63;;;20.29
60731;BMP280;46580;52.114;11.674;2022-08-20T05:00:55;100813.72;;;20.30
60731;BMP280;46580;52.114;11.674;2022-08-20T05:03:21;100812.44;;;20.26
60731;BMP280;46580;52.114;11.674;2022-08-20T05:05:52;100808.84;;;20.27
60731;BMP280;46580;52.114;11.674;2022-08-20T05:08:27;100817.13;;;20.30
60731;BMP280;46580;52.114;11.674;2022-08-20T05:10:55;100818.47;;;20.34
60731;BMP280;46580;52.114;11.674;2022-08-20T05:13:25;100810.63;;;20.34
60731;BMP280;46580;52.114;11.674;2022-08-20T05:15:52;100811.25;;;20.36
60731;BMP280;46580;52.114;11.674;2022-08-20T05:18:30;100821.22;;;20.33
60731;BMP280;46580;52.114;11.674;2022-08-20T05:21:04;100823.22;;;20.23
60731;BMP280;46580;52.114;11.674;2022-08-20T05:23:34;100827.53;;;20.16
60731;BMP280;46580;52.114;11.674;2022-08-20T05:26:03;100817.63;;;20.12
60731;BMP280;46580;52.114;11.674;2022-08-20T05:28:36;100823.31;;;20.37
60731;BMP280;46580;52.114;11.674;2022-08-20T05:31:06;100827.44;;;20.32
60731;BMP280;46580;52.114;11.674;2022-08-20T05:33:37;100830.75;;;20.26
60731;BMP280;46580;52.114;11.674;2022-08-20T05:36:03;100834.88;;;20.21
60731;BMP280;46580;52.114;11.674;2022-08-20T05:38:31;100828.78;;;20.28
60731;BMP280;46580;52.114;11.674;2022-08-20T05:41:04;100837.69;;;20.41
60731;BMP280;46580;52.114;11.674;2022-08-20T05:43:30;100834.06;;;20.64
60731;BMP280;46580;52.114;11.674;2022-08-20T05:46:04;100834.75;;;20.58
60731;BMP280;46580;52.114;11.674;2022-08-20T05:48:32;100846.28;;;20.49
60731;BMP280;46580;52.114;11.674;2022-08-20T05:50:59;100844.47;;;20.50
60731;BMP280;46580;52.114;11.674;2022-08-20T05:53:27;100838.69;;;20.76
60731;BMP280;46580;52.114;11.674;2022-08-20T05:55:53;100839.25;;;20.86
60731;BMP280;46580;52.114;11.674;2022-08-20T05:58:23;100835.47;;;20.88
60731;BMP280;46580;52.114;11.674;2022-08-20T06:00:50;100838.38;;;20.93
60731;BMP280;46580;52.114;11.674;2022-08-20T06:03:27;100847.66;;;20.82
60731;BMP280;46580;52.114;11.674;2022-08-20T06:06:14;100856.84;;;20.56
60731;BMP280;46580;52.114;11.674;2022-08-20T06:08:40;100855.56;;;20.52
60731;BMP280;46580;52.114;11.674;2022-08-20T06:11:06;100861.16;;;20.49
60731;BMP280;46580;52.114;11.674;2022-08-20T06:13:32;100858.81;;;20.32
60731;BMP280;46580;52.114;11.674;2022-08-20T06:15:58;100865.00;;;20.31
60731;BMP280;46580;52.114;11.674;2022-08-20T06:18:26;100868.25;;;20.41
60731;BMP280;46580;52.114;11.674;2022-08-20T06:20:52;100866.25;;;20.43
60731;BMP280;46580;52.114;11.674;2022-08-20T06:23:18;100862.59;;;20.51
60731;BMP280;46580;52.114;11.674;2022-08-20T06:25:53;100858.38;;;20.50
60731;BMP280;46580;52.114;11.674;2022-08-20T06:28:18;100865.88;;;20.53
60731;BMP280;46580;52.114;11.674;2022-08-20T06:30:44;100877.09;;;20.62
60731;BMP280;46580;52.114;11.674;2022-08-20T06:33:09;100873.16;;;20.80
60731;BMP280;46580;52.114;11.674;2022-08-20T06:35:42;100871.56;;;20.93
60731;BMP280;46580;52.114;11.674;2022-08-20T06:38:17;100877.97;;;20.90
60731;BMP280;46580;52.114;11.674;2022-08-20T06:40:45;100881.94;;;20.86
60731;BMP280;46580;52.114;11.674;2022-08-20T06:43:10;100884.94;;;20.98
60731;BMP280;46580;52.114;11.674;2022-08-20T06:45:45;100880.25;;;20.93
60731;BMP280;46580;52.114;11.674;2022-08-20T06:48:13;100886.13;;;21.09
60731;BMP280;46580;52.114;11.674;2022-08-20T06:50:44;100893.03;;;21.24
60731;BMP280;46580;52.114;11.674;2022-08-20T06:53:15;100891.06;;;21.26
60731;BMP280;46580;52.114;11.674;2022-08-20T06:55:45;100896.22;;;21.20
60731;BMP280;46580;52.114;11.674;2022-08-20T06:58:11;100896.41;;;21.33
60731;BMP280;46580;52.114;11.674;2022-08-20T07:00:44;100892.88;;;21.40
60731;BMP280;46580;52.114;11.674;2022-08-20T07:03:12;100889.72;;;21.73
60731;BMP280;46580;52.114;11.674;2022-08-20T07:05:43;100888.47;;;21.69
60731;BMP280;46580;52.114;11.674;2022-08-20T07:08:11;100888.75;;;21.88
60731;BMP280;46580;52.114;11.674;2022-08-20T07:10:38;100894.63;;;21.90
60731;BMP280;46580;52.114;11.674;2022-08-20T07:13:03;100900.41;;;22.20
60731;BMP280;46580;52.114;11.674;2022-08-20T07:15:30;100891.28;;;22.30
60731;BMP280;46580;52.114;11.674;2022-08-20T07:18:00;100905.75;;;22.26
60731;BMP280;46580;52.114;11.674;2022-08-20T07:20:27;100897.94;;;22.33
60731;BMP280;46580;52.114;11.674;2022-08-20T07:22:52;100905.38;;;22.29
60731;BMP280;46580;52.114;11.674;2022-08-20T07:25:20;100905.34;;;22.43
60731;BMP280;46580;52.114;11.674;2022-08-20T07:27:47;100903.59;;;22.50
60731;BMP280;46580;52.114;11.674;2022-08-20T07:30:17;100900.44;;;22.40
60731;BMP280;46580;52.114;11.674;2022-08-20T07:33:11;100903.00;;;22.34
60731;BMP280;46580;52.114;11.674;2022-08-20T07:35:39;100907.56;;;22.12
60731;BMP280;46580;52.114;11.674;2022-08-20T07:38:13;100913.47;;;21.99
60731;BMP280;46580;52.114;11.674;2022-08-20T07:40:50;100909.88;;;22.00
60731;BMP280;46580;52.114;11.674;2022-08-20T07:43:16;100909.03;;;22.14
60731;BMP280;46580;52.114;11.674;2022-08-20T07:45:41;100906.59;;;21.98
60731;BMP280;46580;52.114;11.674;2022-08-20T07:48:12;100905.88;;;22.04
60731;BMP280;46580;52.114;11.674;2022-08-20T07:50:48;100914.09;;;22.16
60731;BMP280;46580;52.114;11.674;2022-08-20T07:53:14;100911.50;;;22.01
60731;BMP280;46580;52.114;11.674;2022-08-20T07:55:41;100907.34;;;21.93
60731;BMP280;46580;52.114;11.674;2022-08-20T07:58:10;100921.09;;;21.95
60731;BMP280;46580;52.114;11.674;2022-08-20T08:00:38;100923.78;;;22.15
60731;BMP280;46580;52.114;11.674;2022-08-20T08:03:08;100925.56;;;22.29
60731;BMP280;46580;52.114;11.674;2022-08-20T08:05:42;100921.69;;;22.11
60731;BMP280;46580;52.114;11.674;2022-08-20T08:08:11;100930.47;;;22.03
60731;BMP280;46580;52.114;11.674;2022-08-20T08:10:44;100927.97;;;21.96
60731;BMP280;46580;52.114;11.674;2022-08-20T08:13:11;100922.19;;;21.86
60731;BMP280;46580;52.114;11.674;2022-08-20T08:15:46;100925.75;;;21.85
60731;BMP280;46580;52.114;11.674;2022-08-20T08:18:18;100930.19;;;21.84
60731;BMP280;46580;52.114;11.674;2022-08-20T08:20:46;100923.00;;;21.86
60731;BMP280;46580;52.114;11.674;2022-08-20T08:23:23;100922.44;;;21.91
60731;BMP280;46580;52.114;11.674;2022-08-20T08:25:49;100923.47;;;21.90
60731;BMP280;46580;52.114;11.674;2022-08-20T08:28:19;100926.88;;;21.90
60731;BMP280;46580;52.114;11.674;2022-08-20T08:30:52;100922.25;;;21.92
60731;BMP280;46580;52.114;11.674;2022-08-20T08:33:27;100926.34;;;21.95
60731;BMP280;46580;52.114;11.674;2022-08-20T08:36:00;100929.59;;;21.97
60731;BMP280;46580;52.114;11.674;2022-08-20T08:38:28;100925.94;;;21.98
60731;BMP280;46580;52.114;11.674;2022-08-20T08:41:07;100932.16;;;22.11
60731;BMP280;46580;52.114;11.674;2022-08-20T08:43:36;100931.91;;;22.06
60731;BMP280;46580;52.114;11.674;2022-08-20T08:46:05;100926.00;;;22.18
60731;BMP280;46580;52.114;11.674;2022-08-20T08:48:58;100929.00;;;22.50
60731;BMP280;46580;52.114;11.674;2022-08-20T08:51:46;100932.34;;;22.58
60731;BMP280;46580;52.114;11.674;2022-08-20T08:54:24;100927.97;;;22.65
60731;BMP280;46580;52.114;11.674;2022-08-20T08:56:54;100926.84;;;22.73
60731;BMP280;46580;52.114;11.674;2022-08-20T08:59:20;100931.28;;;22.73
60731;BMP280;46580;52.114;11.674;2022-08-20T09:01:56;100932.75;;;22.75
60731;BMP280;46580;52.114;11.674;2022-08-20T09:04:37;100936.66;;;22.86
60731;BMP280;46580;52.114;11.674;2022-08-20T09:07:13;100937.81;;;22.77
60731;BMP280;46580;52.114;11.674;2022-08-20T09:09:44;100929.00;;;22.84
60731;BMP280;46580;52.114;11.674;2022-08-20T09:12:17;100935.09;;;22.91
60731;BMP280;46580;52.114;11.674;2022-08-20T09:15:04;100935.41;;;23.02
60731;BMP280;46580;52.114;11.674;2022-08-20T09:17:39;100941.09;;;23.06
60731;BMP280;46580;52.114;11.674;2022-08-20T09:20:12;100932.06;;;23.14
60731;BMP280;46580;52.114;11.674;2022-08-20T09:22:37;100938.38;;;23.20
60731;BMP280;46580;52.114;11.674;2022-08-20T09:25:03;100940.09;;;23.07
60731;BMP280;46580;52.114;11.674;2022-08-20T09:27:38;100944.16;;;23.09
60731;BMP280;46580;52.114;11.674;2022-08-20T09:30:04;100941.53;;;23.09
60731;BMP280;46580;52.114;11.674;2022-08-20T09:32:30;100950.78;;;23.05
60731;BMP280;46580;52.114;11.674;2022-08-20T09:34:56;100944.16;;;23.09
60731;BMP280;46580;52.114;11.674;2022-08-20T09:37:24;100945.56;;;23.11
60731;BMP280;46580;52.114;11.674;2022-08-20T09:39:50;100950.66;;;23.13
60731;BMP280;46580;52.114;11.674;2022-08-20T09:42:22;100947.59;;;23.10
60731;BMP280;46580;52.114;11.674;2022-08-20T09:44:47;100948.41;;;23.10
60731;BMP280;46580;52.114;11.674;2022-08-20T09:47:13;100942.72;;;23.27
60731;BMP280;46580;52.114;11.674;2022-08-20T09:49:39;100949.69;;;23.20
60731;BMP280;46580;52.114;11.674;2022-08-20T09:52:10;100943.22;;;23.37
60731;BMP280;46580;52.114;11.674;2022-08-20T09:54:36;100942.25;;;23.44
60731;BMP280;46580;52.114;11.674;2022-08-20T09:57:07;100941.03;;;23.47
60731;BMP280;46580;52.114;11.674;2022-08-20T09:59:34;100937.69;;;23.59
60731;BMP280;46580;52.114;11.674;2022-08-20T10:02:00;100941.22;;;23.45
60731;BMP280;46580;52.114;11.674;2022-08-20T10:04:25;100938.91;;;23.56
60731;BMP280;46580;52.114;11.674;2022-08-20T10:06:55;100938.97;;;23.69
60731;BMP280;46580;52.114;11.674;2022-08-20T10:09:20;100933.13;;;23.73
60731;BMP280;46580;52.114;11.674;2022-08-20T10:11:48;100936.56;;;23.74
60731;BMP280;46580;52.114;11.674;2022-08-20T10:14:14;100940.84;;;23.81
60731;BMP280;46580;52.114;11.674;2022-08-20T10:16:54;100936.41;;;23.82
60731;BMP280;46580;52.114;11.674;2022-08-20T10:19:20;100939.03;;;23.82
60731;BMP280;46580;52.114;11.674;2022-08-20T10:21:49;100941.56;;;23.96
60731;BMP280;46580;52.114;11.674;2022-08-20T10:24:18;100951.63;;;23.92
60731;BMP280;46580;52.114;11.674;2022-08-20T10:26:49;100948.16;;;24.19
60731;BMP280;46580;52.114;11.674;2022-08-20T10:29:30;100942.69;;;24.26
60731;BMP280;46580;52.114;11.674;2022-08-20T10:31:56;100951.16;;;24.16
60731;BMP280;46580;52.114;11.674;2022-08-20T10:34:24;100945.34;;;24.33
60731;BMP280;46580;52.114;11.674;2022-08-20T10:36:54;100939.75;;;24.55
60731;BMP280;46580;52.114;11.674;2022-08-20T10:39:36;100946.75;;;24.23
60731;BMP280;46580;52.114;11.674;2022-08-20T10:42:02;100949.34;;;24.16
60731;BMP280;46580;52.114;11.674;2022-08-20T10:44:27;100943.91;;;24.18
60731;BMP280;46580;52.114;11.674;2022-08-20T10:46:52;100947.38;;;24.24
60731;BMP280;46580;52.114;11.674;2022-08-20T10:49:18;100949.97;;;24.18
60731;BMP280;46580;52.114;11.674;2022-08-20T10:51:46;100941.19;;;23.99
60731;BMP280;46580;52.114;11.674;2022-08-20T10:54:11;100947.03;;;23.94
60731;BMP280;46580;52.114;11.674;2022-08-20T10:56:37;100935.44;;;23.89
60731;BMP280;46580;52.114;11.674;2022-08-20T10:59:05;100943.22;;;24.03
60731;BMP280;46580;52.114;11.674;2022-08-20T11:01:30;100942.69;;;24.20
60731;BMP280;46580;52.114;11.674;2022-08-20T11:03:58;100943.25;;;24.09
60731;BMP280;46580;52.114;11.674;2022-08-20T11:06:23;100940.88;;;24.21
60731;BMP280;46580;52.114;11.674;2022-08-20T11:08:49;100935.59;;;24.21
60731;BMP280;46580;52.114;11.674;2022-08-20T11:11:16;100934.59;;;24.22
60731;BMP280;46580;52.114;11.674;2022-08-20T11:13:42;100931.13;;;24.15
60731;BMP280;46580;52.114;11.674;2022-08-20T11:16:07;100941.03;;;24.13
60731;BMP280;46580;52.114;11.674;2022-08-20T11:18:35;100936.72;;;23.99
60731;BMP280;46580;52.114;11.674;2022-08-20T11:21:00;100934.59;;;24.22
60731;BMP280;46580;52.114;11.674;2022-08-20T11:23:28;100943.22;;;24.03
60731;BMP280;46580;52.114;11.674;2022-08-20T11:25:56;100950.84;;;23.92
60731;BMP280;46580;52.114;11.674;2022-08-20T11:28:24;100941.00;;;23.73
60731;BMP280;46580;52.114;11.674;2022-08-20T11:30:56;100947.00;;;23.61
60731;BMP280;46580;52.114;11.674;2022-08-20T11:33:22;100942.38;;;23.63
60731;BMP280;46580;52.114;11.674;2022-08-20T11:35:47;100942.16;;;23.58
60731;BMP280;46580;52.114;11.674;2022-08-20T11:38:12;100944.34;;;23.55
60731;BMP280;46580;52.114;11.674;2022-08-20T11:40:38;100938.03;;;23.49
60731;BMP280;46580;52.114;11.674;2022-08-20T11:43:03;100942.28;;;23.50
60731;BMP280;46580;52.114;11.674;2022-08-20T11:45:31;100942.56;;;23.62
60731;BMP280;46580;52.114;11.674;2022-08-20T11:47:59;100937.63;;;23.52
60731;BMP280;46580;52.114;11.674;2022-08-20T11:50:24;100941.66;;;23.48
60731;BMP280;46580;52.114;11.674;2022-08-20T11:52:50;100936.56;;;23.74
60731;BMP280;46580;52.114;11.674;2022-08-20T11:55:25;100937.47;;;23.93
60731;BMP280;46580;52.114;11.674;2022-08-20T11:57:50;100945.72;;;24.17
60731;BMP280;46580;52.114;11.674;2022-08-20T12:00:19;100948.88;;;24.00
60731;BMP280;46580;52.114;11.674;2022-08-20T12:02:46;100944.50;;;24.20
60731;BMP280;46580;52.114;11.674;2022-08-20T12:05:12;100946.16;;;24.27
60731;BMP280;46580;52.114;11.674;2022-08-20T12:07:37;100948.91;;;24.13
60731;BMP280;46580;52.114;11.674;2022-08-20T12:10:05;100947.88;;;24.01
60731;BMP280;46580;52.114;11.674;2022-08-20T12:12:31;100947.66;;;23.96
60731;BMP280;46580;52.114;11.674;2022-08-20T12:14:59;100950.31;;;24.03
60731;BMP280;46580;52.114;11.674;2022-08-20T12:17:28;100950.13;;;24.04
60731;BMP280;46580;52.114;11.674;2022-08-20T12:20:00;100950.47;;;23.95
60731;BMP280;46580;52.114;11.674;2022-08-20T12:22:26;100956.59;;;23.75
60731;BMP280;46580;52.114;11.674;2022-08-20T12:24:53;100958.31;;;23.62
60731;BMP280;46580;52.114;11.674;2022-08-20T12:27:29;100960.63;;;23.71
60731;BMP280;46580;52.114;11.674;2022-08-20T12:30:02;100959.66;;;23.78
60731;BMP280;46580;52.114;11.674;2022-08-20T12:32:29;100965.59;;;23.60
60731;BMP280;46580;52.114;11.674;2022-08-20T12:34:56;100965.00;;;23.58
60731;BMP280;46580;52.114;11.674;2022-08-20T12:37:30;100967.09;;;23.42
60731;BMP280;46580;52.114;11.674;2022-08-20T12:39:57;100957.91;;;23.31
60731;BMP280;46580;52.114;11.674;2022-08-20T12:42:35;100962.38;;;23.31
60731;BMP280;46580;52.114;11.674;2022-08-20T12:45:08;100963.63;;;23.41
60731;BMP280;46580;52.114;11.674;2022-08-20T12:47:37;100966.09;;;23.76
60731;BMP280;46580;52.114;11.674;2022-08-20T12:50:09;100968.19;;;23.86
60731;BMP280;46580;52.114;11.674;2022-08-20T12:52:35;100965.19;;;23.89
60731;BMP280;46580;52.114;11.674;2022-08-20T12:55:16;100958.44;;;23.81
60731;BMP280;46580;52.114;11.674;2022-08-20T12:58:06;100955.59;;;23.76
60731;BMP280;46580;52.114;11.674;2022-08-20T13:00:33;100957.25;;;23.50
60731;BMP280;46580;52.114;11.674;2022-08-20T13:03:00;100954.97;;;23.74
60731;BMP280;46580;52.114;11.674;2022-08-20T13:05:27;100963.69;;;23.81
60731;BMP280;46580;52.114;11.674;2022-08-20T13:07:55;100962.03;;;23.73
60731;BMP280;46580;52.114;11.674;2022-08-20T13:10:30;100950.75;;;23.79
60731;BMP280;46580;52.114;11.674;2022-08-20T13:12:58;100953.97;;;23.75
60731;BMP280;46580;52.114;11.674;2022-08-20T13:15:28;100958.59;;;23.73
60731;BMP280;46580;52.114;11.674;2022-08-20T13:17:57;100962.72;;;23.88
60731;BMP280;46580;52.114;11.674;2022-08-20T13:20:24;100951.84;;;24.30
60731;BMP280;46580;52.114;11.674;2022-08-20T13:22:52;100945.81;;;24.49
60731;BMP280;46580;52.114;11.674;2022-08-20T13:25:27;100940.56;;;24.49
60731;BMP280;46580;52.114;11.674;2022-08-20T13:27:57;100945.06;;;24.61
60731;BMP280;46580;52.114;11.674;2022-08-20T13:30:33;100937.00;;;24.69
60731;BMP280;46580;52.114;11.674;2022-08-20T13:33:02;100943.28;;;24.74
60731;BMP280;46580;52.114;11.674;2022-08-20T13:35:30;100936.38;;;24.67
60731;BMP280;46580;52.114;11.674;2022-08-20T13:37:56;100935.38;;;24.87
60731;BMP280;46580;52.114;11.674;2022-08-20T13:40:24;100939.25;;;24.91
60731;BMP280;46580;52.114;11.674;2022-08-20T13:42:50;100937.00;;;24.88
60731;BMP280;46580;52.114;11.674;2022-08-20T13:45:15;100935.41;;;25.06
60731;BMP280;46580;52.114;11.674;2022-08-20T13:47:41;100934.81;;;25.04
60731;BMP280;46580;52.114;11.674;2022-08-20T13:52:37;100932.56;;;25.01
60731;BMP280;46580;52.114;11.674;2022-08-20T13:55:04;100933.38;;;25.01
60731;BMP280;46580;52.114;11.674;2022-08-20T13:57:31;100929.72;;;24.90
60731;BMP280;46580;52.114;11.674;2022-08-20T13:59:57;100929.72;;;24.96
60731;BMP280;46580;52.114;11.674;2022-08-20T14:02:25;100931.16;;;24.98